createdAt,value
2022-10-31T00:01:03.528Z,12.60
2022-10-31T00:04:08.548Z,24.27
2022-10-31T00:07:11.215Z,11.53
2022-10-31T00:10:13.964Z,24.27
2022-10-31T00:13:17.229Z,26.80
2022-10-31T00:16:21.987Z,18.00
2022-10-31T00:19:26.262Z,20.33
2022-10-31T00:22:29.238Z,13.10
2022-10-31T00:25:35.830Z,17.90
2022-10-31T00:28:38.515Z,26.40
2022-10-31T00:31:41.618Z,18.50
2022-10-31T00:34:45.682Z,20.27
2022-10-31T00:37:48.359Z,20.67
2022-10-31T00:40:51.230Z,29.80
2022-10-31T00:43:54.101Z,20.13
2022-10-31T00:46:57.183Z,16.53
2022-10-31T00:50:01.226Z,29.43
2022-10-31T00:53:04.240Z,30.53
2022-10-31T00:56:08.204Z,26.17
2022-10-31T00:59:10.859Z,29.63
2022-10-31T01:02:13.996Z,29.07
2022-10-31T01:05:18.662Z,12.93
2022-10-31T01:08:21.314Z,18.20
2022-10-31T01:11:25.537Z,15.80
2022-10-31T01:14:28.295Z,14.80
2022-10-31T01:17:31.287Z,11.93
2022-10-31T01:20:35.328Z,13.00
2022-10-31T01:23:39.010Z,14.93
2022-10-31T01:26:41.665Z,13.27
2022-10-31T01:29:44.598Z,11.03
2022-10-31T01:32:47.325Z,10.23
2022-10-31T01:35:51.582Z,13.23
2022-10-31T01:38:57.271Z,17.07
2022-10-31T01:42:00.225Z,12.73
2022-10-31T01:45:06.156Z,22.03
2022-10-31T01:48:15.734Z,22.00
2022-10-31T01:51:23.864Z,14.10
2022-10-31T01:54:33.164Z,13.03
2022-10-31T01:57:39.769Z,12.60
2022-10-31T02:00:45.982Z,16.87
2022-10-31T02:03:49.857Z,24.83
2022-10-31T02:07:00.205Z,25.17
2022-10-31T02:10:05.033Z,20.17
2022-10-31T02:13:10.256Z,22.47
2022-10-31T02:16:12.933Z,19.83
2022-10-31T02:19:21.878Z,17.87
2022-10-31T02:22:30.730Z,23.63
2022-10-31T02:25:51.657Z,24.13
2022-10-31T02:29:26.910Z,27.47
2022-10-31T02:32:40.353Z,34.97
2022-10-31T02:35:52.410Z,16.07
2022-10-31T02:39:04.391Z,30.27
2022-10-31T02:42:11.670Z,29.00
2022-10-31T02:45:22.595Z,22.10
2022-10-31T02:48:30.374Z,20.00
2022-10-31T02:51:33.209Z,16.60
2022-10-31T02:54:36.040Z,17.83
2022-10-31T02:57:41.123Z,34.20
2022-10-31T03:00:52.861Z,23.67
2022-10-31T03:04:25.836Z,11.70
2022-10-31T03:07:42.154Z,13.63
2022-10-31T03:10:49.715Z,9.80
2022-10-31T03:13:59.898Z,13.53
2022-10-31T03:17:08.442Z,12.13
2022-10-31T03:20:12.804Z,12.53
2022-10-31T03:23:19.028Z,13.40
2022-10-31T03:26:23.901Z,11.40
2022-10-31T03:29:30.907Z,15.17
2022-10-31T03:32:38.978Z,17.90
2022-10-31T03:35:46.767Z,10.80
2022-10-31T03:38:50.087Z,10.60
2022-10-31T03:41:56.875Z,12.47
2022-10-31T03:45:04.571Z,11.80
2022-10-31T03:48:07.690Z,22.33
2022-10-31T03:51:17.496Z,19.37
2022-10-31T03:54:27.559Z,38.00
2022-10-31T03:57:37.658Z,17.47
2022-10-31T04:00:44.041Z,19.53
2022-10-31T04:03:47.519Z,25.03
2022-10-31T04:06:53.267Z,19.17
2022-10-31T04:09:57.912Z,24.63
2022-10-31T04:13:05.824Z,13.40
2022-10-31T04:16:12.737Z,9.87
2022-10-31T04:19:19.223Z,19.70
2022-10-31T04:22:23.333Z,17.50
2022-10-31T04:25:26.041Z,12.87
2022-10-31T04:28:29.465Z,11.67
2022-10-31T04:31:32.178Z,10.00
2022-10-31T04:34:35.340Z,10.63
2022-10-31T04:37:39.856Z,10.67
2022-10-31T04:40:42.639Z,16.90
2022-10-31T04:43:45.738Z,12.33
2022-10-31T04:46:48.670Z,16.43
2022-10-31T04:49:51.790Z,9.93
2022-10-31T04:52:55.871Z,5.60
2022-10-31T04:56:00.579Z,14.90
2022-10-31T04:59:04.075Z,12.60
2022-10-31T05:02:07.435Z,15.23
2022-10-31T05:05:10.719Z,11.13
2022-10-31T05:08:15.479Z,21.07
2022-10-31T05:11:18.221Z,24.43
2022-10-31T05:14:21.310Z,47.00
2022-10-31T05:17:24.226Z,32.83
2022-10-31T05:20:28.962Z,32.67
2022-10-31T05:23:33.083Z,22.13
2022-10-31T05:26:35.857Z,25.77
2022-10-31T05:29:38.752Z,18.67
2022-10-31T05:32:42.174Z,15.50
2022-10-31T05:35:44.893Z,38.87
2022-10-31T05:38:49.349Z,48.60
2022-10-31T05:41:52.073Z,36.03
2022-10-31T05:44:54.766Z,33.67
2022-10-31T05:47:59.880Z,30.60
2022-10-31T05:51:04.033Z,15.47
2022-10-31T05:54:10.750Z,48.63
2022-10-31T05:57:16.608Z,18.13
2022-10-31T06:00:20.544Z,79.53
2022-10-31T06:03:23.257Z,19.63
2022-10-31T06:06:25.958Z,15.37
2022-10-31T06:09:30.447Z,14.57
2022-10-31T06:12:33.441Z,22.23
2022-10-31T06:15:36.160Z,8.87
2022-10-31T06:18:39.237Z,9.17
2022-10-31T06:21:41.916Z,12.53
2022-10-31T06:24:45.969Z,30.43
2022-10-31T06:27:48.671Z,40.83
2022-10-31T06:30:51.866Z,37.77
2022-10-31T06:33:54.639Z,33.37
2022-10-31T06:36:57.710Z,54.43
2022-10-31T06:40:01.767Z,39.73
2022-10-31T06:43:05.018Z,61.50
2022-10-31T06:46:07.998Z,43.23
2022-10-31T06:49:11.088Z,29.20
2022-10-31T06:52:13.850Z,25.90
2022-10-31T06:55:17.950Z,37.53
2022-10-31T06:58:20.700Z,42.80
2022-10-31T07:01:23.554Z,22.57
2022-10-31T07:04:26.459Z,28.03
2022-10-31T07:07:29.143Z,12.50
2022-10-31T07:10:40.058Z,16.27
2022-10-31T07:13:43.629Z,12.13
2022-10-31T07:16:49.834Z,21.23
2022-10-31T07:19:52.495Z,25.27
2022-10-31T07:22:55.390Z,19.33
2022-10-31T07:26:00.621Z,9.77
2022-10-31T07:29:03.482Z,7.63
2022-10-31T07:32:06.410Z,10.70
2022-10-31T07:35:10.333Z,7.80
2022-10-31T07:38:15.136Z,12.10
2022-10-31T07:41:19.234Z,15.23
2022-10-31T07:44:21.912Z,4.67
2022-10-31T07:47:24.711Z,4.93
2022-10-31T07:50:29.483Z,14.77
2022-10-31T07:53:32.178Z,12.20
2022-10-31T07:56:36.345Z,8.23
2022-10-31T07:59:39.095Z,9.20
2022-10-31T08:02:41.780Z,11.10
2022-10-31T08:05:46.959Z,5.53
2022-10-31T08:08:49.797Z,5.80
2022-10-31T08:11:55.304Z,15.43
2022-10-31T08:14:58.056Z,12.97
2022-10-31T08:18:02.910Z,16.17
2022-10-31T08:21:06.349Z,19.23
2022-10-31T08:24:09.169Z,64.07
2022-10-31T08:27:13.586Z,20.80
2022-10-31T08:30:16.357Z,14.17
2022-10-31T08:33:20.518Z,13.53
2022-10-31T08:36:23.814Z,29.63
2022-10-31T08:39:27.080Z,20.17
2022-10-31T08:42:31.175Z,38.63
2022-10-31T08:45:35.510Z,13.20
2022-10-31T08:48:38.255Z,12.30
2022-10-31T08:51:41.429Z,11.53
2022-10-31T08:54:44.157Z,9.60
2022-10-31T08:57:48.606Z,16.83
2022-10-31T09:00:53.597Z,7.03
2022-10-31T09:03:56.365Z,7.77
2022-10-31T09:07:21.277Z,5.17
2022-10-31T09:10:22.589Z,4.87
2022-10-31T09:13:28.390Z,12.33
2022-10-31T09:16:31.558Z,8.30
2022-10-31T09:19:34.786Z,6.00
2022-10-31T09:22:37.517Z,8.03
2022-10-31T09:25:41.079Z,5.90
2022-10-31T09:28:47.325Z,5.37
2022-10-31T09:31:51.356Z,6.37
2022-10-31T09:34:54.351Z,5.00
2022-10-31T09:37:58.267Z,5.80
2022-10-31T09:41:09.854Z,3.47
2022-10-31T09:44:25.167Z,4.40
2022-10-31T09:47:38.396Z,3.97
2022-10-31T09:50:45.207Z,4.57
2022-10-31T09:53:52.299Z,3.53
2022-10-31T09:56:55.706Z,11.00
2022-10-31T10:00:00.597Z,4.30
2022-10-31T10:03:13.355Z,5.47
2022-10-31T10:06:18.447Z,4.43
2022-10-31T10:09:24.352Z,11.43
2022-10-31T10:12:42.981Z,10.97
2022-10-31T10:16:03.270Z,6.37
2022-10-31T10:19:24.164Z,9.10
2022-10-31T10:22:33.973Z,7.70
2022-10-31T10:25:41.817Z,6.17
2022-10-31T10:28:49.339Z,7.30
2022-10-31T10:31:55.937Z,5.07
2022-10-31T10:35:05.541Z,5.77
2022-10-31T10:38:17.449Z,8.57
2022-10-31T10:41:23.011Z,6.57
2022-10-31T10:44:43.238Z,9.57
2022-10-31T10:47:58.805Z,7.93
2022-10-31T10:51:03.777Z,9.10
2022-10-31T10:54:22.594Z,7.87
2022-10-31T10:57:40.646Z,6.27
2022-10-31T11:00:47.259Z,9.77
2022-10-31T11:03:52.242Z,9.80
2022-10-31T11:07:03.340Z,7.53
2022-10-31T11:10:13.972Z,8.43
2022-10-31T11:13:25.120Z,7.67
2022-10-31T11:16:40.455Z,8.13
2022-10-31T11:19:45.486Z,8.27
2022-10-31T11:22:50.590Z,7.17
2022-10-31T11:25:57.019Z,8.00
2022-10-31T11:29:02.358Z,7.40
2022-10-31T11:32:05.541Z,7.57
2022-10-31T11:35:17.386Z,12.10
2022-10-31T11:38:23.801Z,9.47
2022-10-31T11:41:31.024Z,12.03
2022-10-31T11:44:34.634Z,9.83
2022-10-31T11:47:37.850Z,10.20
2022-10-31T11:50:44.615Z,16.93
2022-10-31T11:53:56.818Z,11.03
2022-10-31T11:57:04.307Z,15.33
2022-10-31T12:00:23.424Z,10.03
2022-10-31T12:03:39.450Z,9.60
2022-10-31T12:06:46.847Z,17.33
2022-10-31T12:09:50.181Z,11.60
2022-10-31T12:13:03.634Z,11.30
2022-10-31T12:16:14.884Z,7.00
2022-10-31T12:19:29.026Z,14.97
2022-10-31T12:22:44.226Z,9.37
2022-10-31T12:25:53.560Z,8.03
2022-10-31T12:29:16.603Z,8.77
2022-10-31T12:32:31.761Z,12.67
2022-10-31T12:35:43.711Z,10.70
2022-10-31T12:39:02.233Z,13.90
2022-10-31T12:42:15.182Z,11.90
2022-10-31T12:45:34.977Z,12.73
2022-10-31T12:49:18.270Z,12.87
2022-10-31T12:52:42.634Z,12.57
2022-10-31T12:55:56.720Z,16.07
2022-10-31T12:59:06.464Z,16.17
2022-10-31T13:02:18.982Z,14.80
2022-10-31T13:05:28.615Z,16.90
2022-10-31T13:08:38.876Z,13.37
2022-10-31T13:11:53.479Z,16.40
2022-10-31T13:15:00.994Z,14.13
2022-10-31T13:18:09.120Z,14.87
2022-10-31T13:21:19.002Z,14.87
2022-10-31T13:24:25.818Z,17.60
2022-10-31T13:27:33.026Z,15.83
2022-10-31T13:30:40.260Z,15.07
2022-10-31T13:33:48.005Z,17.07
2022-10-31T13:36:58.401Z,19.67
2022-10-31T13:40:16.021Z,17.43
2022-10-31T13:43:29.391Z,18.63
2022-10-31T13:46:40.645Z,19.77
2022-10-31T13:49:43.797Z,21.27
2022-10-31T13:52:46.666Z,18.20
2022-10-31T13:55:51.094Z,20.10
2022-10-31T13:59:06.477Z,20.97
2022-10-31T14:02:17.806Z,21.63
2022-10-31T14:05:25.845Z,20.30
2022-10-31T14:08:36.571Z,19.73
2022-10-31T14:11:39.383Z,21.60
2022-10-31T14:14:48.301Z,22.73
2022-10-31T14:17:54.614Z,27.23
2022-10-31T14:20:57.553Z,26.93
2022-10-31T14:24:00.412Z,22.23
2022-10-31T14:27:08.794Z,26.03
2022-10-31T14:30:23.481Z,24.23
2022-10-31T14:33:28.904Z,24.00
2022-10-31T14:36:43.797Z,29.27
2022-10-31T14:40:00.208Z,24.13
2022-10-31T14:43:29.737Z,24.87
2022-10-31T14:46:45.300Z,25.17
2022-10-31T14:50:14.977Z,26.97
2022-10-31T14:53:22.876Z,27.93
2022-10-31T14:56:28.976Z,28.07
2022-10-31T14:59:35.213Z,28.73
2022-10-31T15:02:46.517Z,21.17
2022-10-31T15:05:53.549Z,21.33
2022-10-31T15:08:56.712Z,17.80
2022-10-31T15:12:00.763Z,17.80
2022-10-31T15:15:16.076Z,22.43
2022-10-31T15:18:24.856Z,18.73
2022-10-31T15:21:29.916Z,19.07
2022-10-31T15:24:36.041Z,19.00
2022-10-31T15:27:42.566Z,22.17
2022-10-31T15:30:53.620Z,23.40
2022-10-31T15:34:03.198Z,27.73
2022-10-31T15:37:06.560Z,22.40
2022-10-31T15:40:16.970Z,26.17
2022-10-31T15:43:19.746Z,22.97
2022-10-31T15:46:23.166Z,24.80
2022-10-31T15:49:39.142Z,27.10
2022-10-31T15:52:48.076Z,28.03
2022-10-31T15:55:54.248Z,29.43
2022-10-31T15:58:59.475Z,36.47
2022-10-31T16:02:05.279Z,35.83
2022-10-31T16:05:20.716Z,38.57
2022-10-31T16:08:33.689Z,37.40
2022-10-31T16:11:39.383Z,44.90
2022-10-31T16:14:43.296Z,41.60
2022-10-31T16:17:49.196Z,48.80
2022-10-31T16:20:56.609Z,36.40
2022-10-31T16:24:05.913Z,35.17
2022-10-31T16:27:20.230Z,41.73
2022-10-31T16:30:36.853Z,35.70
2022-10-31T16:33:41.512Z,43.67
2022-10-31T16:36:46.133Z,39.03
2022-10-31T16:39:49.025Z,70.37
2022-10-31T16:42:52.666Z,85.03
2022-10-31T16:45:55.497Z,59.50
2022-10-31T16:48:59.302Z,43.03
2022-10-31T16:52:03.397Z,41.43
2022-10-31T16:55:07.404Z,40.90
2022-10-31T16:58:16.216Z,50.23
2022-10-31T17:01:19.056Z,48.37
2022-10-31T17:04:22.034Z,43.23
2022-10-31T17:07:26.150Z,34.27
2022-10-31T17:10:29.073Z,36.93
2022-10-31T17:13:33.859Z,36.77
2022-10-31T17:16:36.933Z,41.23
2022-10-31T17:19:39.653Z,43.83
2022-10-31T17:22:43.907Z,46.03
2022-10-31T17:25:46.673Z,39.00
2022-10-31T17:28:49.746Z,45.13
2022-10-31T17:31:52.518Z,29.90
2022-10-31T17:34:55.275Z,29.40
2022-10-31T17:37:59.750Z,37.90
2022-10-31T17:41:10.017Z,38.07
2022-10-31T17:44:14.422Z,31.17
2022-10-31T17:47:17.213Z,34.60
2022-10-31T17:50:22.244Z,38.30
2022-10-31T17:53:26.310Z,27.77
2022-10-31T17:56:29.171Z,29.03
2022-10-31T17:59:31.942Z,36.93
2022-10-31T18:02:35.238Z,26.53
2022-10-31T18:05:38.219Z,29.90
2022-10-31T18:08:42.484Z,30.50
2022-10-31T18:11:45.256Z,29.73
2022-10-31T18:14:48.727Z,31.30
2022-10-31T18:17:51.689Z,34.33
2022-10-31T18:20:58.356Z,35.23
2022-10-31T18:24:03.874Z,37.40
2022-10-31T18:27:07.286Z,44.37
2022-10-31T18:30:10.898Z,43.17
2022-10-31T18:33:13.979Z,45.60
2022-10-31T18:36:16.821Z,49.63
2022-10-31T18:39:21.054Z,50.90
2022-10-31T18:42:23.775Z,58.07
2022-10-31T18:45:46.357Z,58.67
2022-10-31T18:48:50.062Z,45.07
2022-10-31T18:51:53.178Z,46.13
2022-10-31T18:54:57.379Z,50.63
2022-10-31T18:58:02.294Z,52.43
2022-10-31T19:01:08.647Z,59.83
2022-10-31T19:04:11.947Z,57.40
2022-10-31T19:07:15.338Z,55.70
2022-10-31T19:10:19.624Z,55.23
2022-10-31T19:13:22.953Z,59.13
2022-10-31T19:16:25.771Z,61.60
2022-10-31T19:19:29.618Z,51.10
2022-10-31T19:22:33.006Z,50.10
2022-10-31T19:25:38.324Z,50.13
2022-10-31T19:28:42.580Z,33.40
2022-10-31T19:31:45.317Z,59.93
2022-10-31T19:34:48.091Z,55.53
2022-10-31T19:37:51.340Z,51.37
2022-10-31T19:40:59.194Z,29.67
2022-10-31T19:44:02.376Z,21.47
2022-10-31T19:47:05.334Z,18.63
2022-10-31T19:50:09.664Z,20.63
2022-10-31T19:53:12.455Z,23.97
2022-10-31T19:56:18.233Z,24.70
2022-10-31T19:59:20.935Z,27.53
2022-10-31T20:02:23.699Z,23.43
2022-10-31T20:05:26.843Z,25.27
2022-10-31T20:08:29.913Z,53.63
2022-10-31T20:11:34.019Z,39.10
2022-10-31T20:14:36.739Z,28.80
2022-10-31T20:17:39.543Z,30.63
2022-10-31T20:20:42.830Z,29.60
2022-10-31T20:23:46.409Z,40.30
2022-10-31T20:26:50.465Z,36.07
2022-10-31T20:29:53.568Z,35.90
2022-10-31T20:32:56.292Z,33.17
2022-10-31T20:35:59.052Z,52.67
2022-10-31T20:39:02.149Z,60.60
2022-10-31T20:42:07.244Z,40.50
2022-10-31T20:45:10.654Z,44.40
2022-10-31T20:48:13.693Z,47.47
2022-10-31T20:51:18.653Z,62.80
2022-10-31T20:54:21.809Z,100.60
2022-10-31T20:57:25.866Z,53.40
2022-10-31T21:00:29.005Z,43.10
2022-10-31T21:03:31.776Z,39.30
2022-10-31T21:06:35.324Z,31.90
2022-10-31T21:09:38.009Z,33.80
2022-10-31T21:12:43.033Z,51.20
2022-10-31T21:15:45.866Z,27.90
2022-10-31T21:18:50.717Z,27.00
2022-10-31T21:21:53.521Z,27.53
2022-10-31T21:24:56.252Z,26.40
2022-10-31T21:28:00.758Z,29.53
2022-10-31T21:31:07.645Z,21.60
2022-10-31T21:34:11.275Z,24.17
2022-10-31T21:37:14.277Z,23.00
2022-10-31T21:40:17.009Z,21.23
2022-10-31T21:43:21.183Z,24.77
2022-10-31T21:46:25.806Z,21.03
2022-10-31T21:49:29.518Z,22.03
2022-10-31T21:52:32.912Z,25.57
2022-10-31T21:55:34.770Z,24.63
2022-10-31T21:58:38.944Z,24.10
2022-10-31T22:01:42.236Z,25.17
2022-10-31T22:04:45.601Z,29.47
2022-10-31T22:07:48.311Z,25.70
2022-10-31T22:10:51.115Z,30.90
2022-10-31T22:13:55.710Z,31.10
2022-10-31T22:16:58.532Z,27.37
2022-10-31T22:20:01.205Z,23.63
2022-10-31T22:23:04.058Z,24.07
2022-10-31T22:26:08.966Z,22.27
2022-10-31T22:29:15.146Z,27.10
2022-10-31T22:32:17.826Z,26.30
2022-10-31T22:35:20.502Z,26.07
2022-10-31T22:38:23.304Z,29.67
2022-10-31T22:41:27.556Z,24.80
2022-10-31T22:44:31.665Z,22.83
2022-10-31T22:47:34.755Z,23.63
2022-10-31T22:50:37.566Z,23.87
2022-10-31T22:53:41.525Z,23.57
2022-10-31T22:56:44.334Z,23.70
2022-10-31T22:59:48.621Z,22.10
2022-10-31T23:02:51.555Z,18.17
2022-10-31T23:05:58.152Z,18.57
2022-10-31T23:09:02.565Z,19.10
2022-10-31T23:12:19.424Z,18.23
2022-10-31T23:15:23.553Z,17.70
2022-10-31T23:18:48.516Z,19.03
2022-10-31T23:21:57.500Z,18.60
2022-10-31T23:25:00.361Z,18.50
2022-10-31T23:28:02.963Z,19.20
2022-10-31T23:31:07.115Z,19.27
2022-10-31T23:34:10.218Z,16.53
2022-10-31T23:37:13.758Z,15.73
2022-10-31T23:40:16.707Z,15.77
2022-10-31T23:43:19.759Z,19.23
2022-10-31T23:46:24.102Z,21.20
2022-10-31T23:49:27.144Z,22.60
2022-10-31T23:52:30.225Z,22.93
2022-10-31T23:55:33.044Z,21.17
2022-10-31T23:58:35.752Z,24.37
